sensor_id;sensor_type;location;lat;lon;timestamp;pressure;altitude;pressure_sealevel;temperature;humidity
27712;BME280;2377;51.734;8.950;2023-07-08T00:00:21;98263.81;;;21.73;47.93
27712;BME280;2377;51.734;8.950;2023-07-08T00:02:49;98262.25;;;21.72;48.30
27712;BME280;2377;51.734;8.950;2023-07-08T00:05:18;98262.03;;;21.68;48.04
27712;BME280;2377;51.734;8.950;2023-07-08T00:07:47;98259.97;;;21.65;48.28
27712;BME280;2377;51.734;8.950;2023-07-08T00:10:19;98256.38;;;21.61;48.54
27712;BME280;2377;51.734;8.950;2023-07-08T00:12:50;98250.66;;;21.59;48.35
27712;BME280;2377;51.734;8.950;2023-07-08T00:15:18;98256.13;;;21.58;48.26
27712;BME280;2377;51.734;8.950;2023-07-08T00:17:46;98252.25;;;21.55;48.44
27712;BME280;2377;51.734;8.950;2023-07-08T00:20:17;98253.84;;;21.51;48.70
27712;BME280;2377;51.734;8.950;2023-07-08T00:22:46;98248.13;;;21.49;48.43
27712;BME280;2377;51.734;8.950;2023-07-08T00:25:17;98247.13;;;21.45;48.56
27712;BME280;2377;51.734;8.950;2023-07-08T00:27:45;98240.63;;;21.42;48.73
27712;BME280;2377;51.734;8.950;2023-07-08T00:30:21;98237.00;;;21.38;48.90
27712;BME280;2377;51.734;8.950;2023-07-08T00:32:49;98236.75;;;21.35;48.89
27712;BME280;2377;51.734;8.950;2023-07-08T00:35:21;98238.09;;;21.32;48.66
27712;BME280;2377;51.734;8.950;2023-07-08T00:37:51;98232.09;;;21.31;48.59
27712;BME280;2377;51.734;8.950;2023-07-08T00:40:22;98225.63;;;21.29;48.56
27712;BME280;2377;51.734;8.950;2023-07-08T00:42:51;98229.00;;;21.29;48.56
27712;BME280;2377;51.734;8.950;2023-07-08T00:45:38;98223.28;;;21.27;48.58
27712;BME280;2377;51.734;8.950;2023-07-08T00:48:21;98228.22;;;21.29;48.43
27712;BME280;2377;51.734;8.950;2023-07-08T00:50:50;98227.94;;;21.30;47.86
27712;BME280;2377;51.734;8.950;2023-07-08T00:53:26;98229.00;;;21.29;48.12
27712;BME280;2377;51.734;8.950;2023-07-08T00:55:58;98226.13;;;21.31;48.04
27712;BME280;2377;51.734;8.950;2023-07-08T00:58:33;98223.53;;;21.31;47.85
27712;BME280;2377;51.734;8.950;2023-07-08T01:01:04;98218.03;;;21.32;47.65
27712;BME280;2377;51.734;8.950;2023-07-08T01:03:36;98217.28;;;21.32;47.75
27712;BME280;2377;51.734;8.950;2023-07-08T01:06:06;98215.94;;;21.35;47.40
27712;BME280;2377;51.734;8.950;2023-07-08T01:08:33;98215.94;;;21.35;47.64
27712;BME280;2377;51.734;8.950;2023-07-08T01:11:04;98210.25;;;21.32;47.61
27712;BME280;2377;51.734;8.950;2023-07-08T01:13:35;98211.31;;;21.31;47.30
27712;BME280;2377;51.734;8.950;2023-07-08T01:16:05;98206.09;;;21.31;47.52
27712;BME280;2377;51.734;8.950;2023-07-08T01:18:33;98209.97;;;21.34;47.33
27712;BME280;2377;51.734;8.950;2023-07-08T01:21:04;98210.25;;;21.32;47.37
27712;BME280;2377;51.734;8.950;2023-07-08T01:23:35;98200.13;;;21.31;47.23
27712;BME280;2377;51.734;8.950;2023-07-08T01:26:03;98205.34;;;21.31;47.00
27712;BME280;2377;51.734;8.950;2023-07-08T01:28:31;98207.63;;;21.32;47.04
27712;BME280;2377;51.734;8.950;2023-07-08T01:30:59;98204.78;;;21.34;46.96
27712;BME280;2377;51.734;8.950;2023-07-08T01:33:27;98199.06;;;21.32;47.07
27712;BME280;2377;51.734;8.950;2023-07-08T01:35:54;98198.28;;;21.31;47.01
27712;BME280;2377;51.734;8.950;2023-07-08T01:38:26;98192.59;;;21.29;46.99
27712;BME280;2377;51.734;8.950;2023-07-08T01:40:57;98203.00;;;21.29;46.71
27712;BME280;2377;51.734;8.950;2023-07-08T01:43:25;98198.34;;;21.26;46.72
27712;BME280;2377;51.734;8.950;2023-07-08T01:45:53;98198.84;;;21.28;47.00
27712;BME280;2377;51.734;8.950;2023-07-08T01:48:23;98192.34;;;21.26;46.85
27712;BME280;2377;51.734;8.950;2023-07-08T01:50:57;98188.19;;;21.25;47.06
27712;BME280;2377;51.734;8.950;2023-07-08T01:53:30;98191.06;;;21.23;46.98
27712;BME280;2377;51.734;8.950;2023-07-08T01:56:00;98189.53;;;21.22;46.85
27712;BME280;2377;51.734;8.950;2023-07-08T01:58:27;98184.84;;;21.24;46.79
27712;BME280;2377;51.734;8.950;2023-07-08T02:00:55;98180.97;;;21.22;46.90
27712;BME280;2377;51.734;8.950;2023-07-08T02:03:22;98188.00;;;21.21;46.93
27712;BME280;2377;51.734;8.950;2023-07-08T02:05:50;98186.41;;;21.20;46.83
27712;BME280;2377;51.734;8.950;2023-07-08T02:08:17;98184.59;;;21.21;46.87
27712;BME280;2377;51.734;8.950;2023-07-08T02:10:50;98177.09;;;21.19;46.90
27712;BME280;2377;51.734;8.950;2023-07-08T02:13:19;98178.13;;;21.18;46.90
27712;BME280;2377;51.734;8.950;2023-07-08T02:15:47;98175.00;;;21.16;46.83
27712;BME280;2377;51.734;8.950;2023-07-08T02:18:14;98170.34;;;21.13;46.81
27712;BME280;2377;51.734;8.950;2023-07-08T02:20:42;98170.34;;;21.13;46.88
27712;BME280;2377;51.734;8.950;2023-07-08T02:23:09;98166.22;;;21.12;46.74
27712;BME280;2377;51.734;8.950;2023-07-08T02:25:37;98174.53;;;21.09;46.97
27712;BME280;2377;51.734;8.950;2023-07-08T02:28:04;98173.50;;;21.10;46.91
27712;BME280;2377;51.734;8.950;2023-07-08T02:30:32;98165.19;;;21.08;46.82
27712;BME280;2377;51.734;8.950;2023-07-08T02:32:59;98164.44;;;21.07;46.84
27712;BME280;2377;51.734;8.950;2023-07-08T02:35:30;98169.13;;;21.05;47.14
27712;BME280;2377;51.734;8.950;2023-07-08T02:37:58;98173.81;;;21.03;47.00
27712;BME280;2377;51.734;8.950;2023-07-08T02:40:25;98167.84;;;21.03;47.28
27712;BME280;2377;51.734;8.950;2023-07-08T02:42:53;98167.34;;;21.01;47.19
27712;BME280;2377;51.734;8.950;2023-07-08T02:45:20;98161.13;;;20.97;47.23
27712;BME280;2377;51.734;8.950;2023-07-08T02:47:48;98158.53;;;20.97;47.23
27712;BME280;2377;51.734;8.950;2023-07-08T02:50:15;98158.28;;;20.93;47.01
27712;BME280;2377;51.734;8.950;2023-07-08T02:52:44;98169.72;;;20.92;47.19
27712;BME280;2377;51.734;8.950;2023-07-08T02:55:11;98165.59;;;20.91;46.89
27712;BME280;2377;51.734;8.950;2023-07-08T02:57:38;98165.84;;;20.89;47.12
27712;BME280;2377;51.734;8.950;2023-07-08T03:00:07;98163.78;;;20.86;47.11
27712;BME280;2377;51.734;8.950;2023-07-08T03:02:34;98169.25;;;20.85;47.10
27712;BME280;2377;51.734;8.950;2023-07-08T03:05:03;98159.91;;;20.84;47.17
27712;BME280;2377;51.734;8.950;2023-07-08T03:07:31;98163.84;;;20.81;47.07
27712;BME280;2377;51.734;8.950;2023-07-08T03:09:58;98164.59;;;20.82;46.90
27712;BME280;2377;51.734;8.950;2023-07-08T03:12:25;98166.44;;;20.81;46.79
27712;BME280;2377;51.734;8.950;2023-07-08T03:14:52;98168.22;;;20.81;46.92
27712;BME280;2377;51.734;8.950;2023-07-08T03:17:19;98173.72;;;20.79;46.87
27712;BME280;2377;51.734;8.950;2023-07-08T03:19:46;98161.75;;;20.78;46.87
27712;BME280;2377;51.734;8.950;2023-07-08T03:22:15;98165.13;;;20.79;46.89
27712;BME280;2377;51.734;8.950;2023-07-08T03:24:42;98170.06;;;20.80;46.75
27712;BME280;2377;51.734;8.950;2023-07-08T03:27:12;98167.47;;;20.80;46.44
27712;BME280;2377;51.734;8.950;2023-07-08T03:29:40;98172.66;;;20.80;46.56
27712;BME280;2377;51.734;8.950;2023-07-08T03:32:11;98169.03;;;20.81;46.66
27712;BME280;2377;51.734;8.950;2023-07-08T03:34:39;98166.44;;;20.81;46.56
27712;BME280;2377;51.734;8.950;2023-07-08T03:37:06;98165.63;;;20.81;46.65
27712;BME280;2377;51.734;8.950;2023-07-08T03:39:34;98160.19;;;20.82;46.76
27712;BME280;2377;51.734;8.950;2023-07-08T03:42:02;98177.59;;;20.82;46.69
27712;BME280;2377;51.734;8.950;2023-07-08T03:44:29;98176.03;;;20.81;46.70
27712;BME280;2377;51.734;8.950;2023-07-08T03:46:56;98176.03;;;20.81;46.63
27712;BME280;2377;51.734;8.950;2023-07-08T03:49:24;98176.84;;;20.81;46.97
27712;BME280;2377;51.734;8.950;2023-07-08T03:51:53;98177.09;;;20.80;46.93
27712;BME280;2377;51.734;8.950;2023-07-08T03:54:22;98172.91;;;20.79;47.15
27712;BME280;2377;51.734;8.950;2023-07-08T03:56:51;98178.13;;;20.79;47.00
27712;BME280;2377;51.734;8.950;2023-07-08T03:59:19;98183.06;;;20.80;46.86
27712;BME280;2377;51.734;8.950;2023-07-08T04:01:46;98187.22;;;20.81;47.01
27712;BME280;2377;51.734;8.950;2023-07-08T04:04:14;98182.78;;;20.82;47.01
27712;BME280;2377;51.734;8.950;2023-07-08T04:06:42;98179.91;;;20.83;46.84
27712;BME280;2377;51.734;8.950;2023-07-08T04:09:11;98183.78;;;20.86;46.82
27712;BME280;2377;51.734;8.950;2023-07-08T04:11:38;98176.50;;;20.88;46.90
27712;BME280;2377;51.734;8.950;2023-07-08T04:14:08;98178.06;;;20.89;46.64
27712;BME280;2377;51.734;8.950;2023-07-08T04:16:48;98175.19;;;20.90;46.25
27712;BME280;2377;51.734;8.950;2023-07-08T04:19:17;98184.50;;;20.97;46.51
27712;BME280;2377;51.734;8.950;2023-07-08T04:21:45;98190.72;;;21.01;46.58
27712;BME280;2377;51.734;8.950;2023-07-08T04:24:14;98190.44;;;21.02;46.74
27712;BME280;2377;51.734;8.950;2023-07-08T04:26:44;98190.19;;;21.04;46.62
27712;BME280;2377;51.734;8.950;2023-07-08T04:29:17;98195.88;;;21.06;46.64
27712;BME280;2377;51.734;8.950;2023-07-08T04:31:45;98189.63;;;21.07;46.64
27712;BME280;2377;51.734;8.950;2023-07-08T04:34:14;98195.34;;;21.09;46.86
27712;BME280;2377;51.734;8.950;2023-07-08T04:36:42;98197.69;;;21.10;46.71
27712;BME280;2377;51.734;8.950;2023-07-08T04:39:10;98203.38;;;21.13;46.75
27712;BME280;2377;51.734;8.950;2023-07-08T04:41:38;98209.34;;;21.13;46.72
27712;BME280;2377;51.734;8.950;2023-07-08T04:44:06;98210.41;;;21.12;46.83
27712;BME280;2377;51.734;8.950;2023-07-08T04:46:40;98205.69;;;21.14;46.95
27712;BME280;2377;51.734;8.950;2023-07-08T04:49:08;98209.34;;;21.13;46.99
27712;BME280;2377;51.734;8.950;2023-07-08T04:51:36;98206.75;;;21.13;46.77
27712;BME280;2377;51.734;8.950;2023-07-08T04:54:04;98201.81;;;21.17;47.01
27712;BME280;2377;51.734;8.950;2023-07-08T04:56:38;98194.78;;;21.17;46.90
27712;BME280;2377;51.734;8.950;2023-07-08T04:59:07;98200.19;;;21.21;46.73
27712;BME280;2377;51.734;8.950;2023-07-08T05:01:37;98199.38;;;21.25;46.77
27712;BME280;2377;51.734;8.950;2023-07-08T05:04:05;98199.63;;;21.29;46.68
27712;BME280;2377;51.734;8.950;2023-07-08T05:06:33;98200.91;;;21.31;47.02
27712;BME280;2377;51.734;8.950;2023-07-08T05:09:02;98197.25;;;21.32;46.72
27712;BME280;2377;51.734;8.950;2023-07-08T05:11:29;98203.97;;;21.39;46.98
27712;BME280;2377;51.734;8.950;2023-07-08T05:13:56;98203.38;;;21.47;46.93
27712;BME280;2377;51.734;8.950;2023-07-08T05:16:24;98197.09;;;21.53;46.64
27712;BME280;2377;51.734;8.950;2023-07-08T05:18:52;98199.13;;;21.61;46.36
27712;BME280;2377;51.734;8.950;2023-07-08T05:21:20;98190.72;;;21.69;46.58
27712;BME280;2377;51.734;8.950;2023-07-08T05:23:48;98192.22;;;21.76;46.84
27712;BME280;2377;51.734;8.950;2023-07-08T05:26:17;98196.31;;;21.82;46.49
27712;BME280;2377;51.734;8.950;2023-07-08T05:28:44;98194.44;;;21.87;46.63
27712;BME280;2377;51.734;8.950;2023-07-08T05:31:11;98194.66;;;21.91;46.43
27712;BME280;2377;51.734;8.950;2023-07-08T05:33:38;98191.22;;;21.95;46.40
27712;BME280;2377;51.734;8.950;2023-07-08T05:36:07;98197.13;;;22.01;46.21
27712;BME280;2377;51.734;8.950;2023-07-08T05:38:34;98197.09;;;22.06;46.09
27712;BME280;2377;51.734;8.950;2023-07-08T05:41:01;98193.66;;;22.11;46.19
27712;BME280;2377;51.734;8.950;2023-07-08T05:43:28;98192.03;;;22.15;45.88
27712;BME280;2377;51.734;8.950;2023-07-08T05:46:00;98187.34;;;22.17;45.96
27712;BME280;2377;51.734;8.950;2023-07-08T05:48:28;98193.81;;;22.20;46.42
27712;BME280;2377;51.734;8.950;2023-07-08T05:50:56;98190.19;;;22.21;45.92
27712;BME280;2377;51.734;8.950;2023-07-08T05:53:25;98198.50;;;22.23;46.64
27712;BME280;2377;51.734;8.950;2023-07-08T05:55:52;98197.44;;;22.24;46.41
27712;BME280;2377;51.734;8.950;2023-07-08T05:58:19;98192.75;;;22.26;46.31
27712;BME280;2377;51.734;8.950;2023-07-08T06:00:46;98192.16;;;22.29;46.29
27712;BME280;2377;51.734;8.950;2023-07-08T06:03:13;98186.97;;;22.29;46.38
27712;BME280;2377;51.734;8.950;2023-07-08T06:05:40;98195.28;;;22.31;46.67
27712;BME280;2377;51.734;8.950;2023-07-08T06:08:09;98193.16;;;22.33;46.50
27712;BME280;2377;51.734;8.950;2023-07-08T06:10:42;98190.00;;;22.36;46.84
27712;BME280;2377;51.734;8.950;2023-07-08T06:13:10;98191.56;;;22.37;46.83
27712;BME280;2377;51.734;8.950;2023-07-08T06:15:37;98185.78;;;22.40;46.82
27712;BME280;2377;51.734;8.950;2023-07-08T06:18:04;98192.25;;;22.43;46.70
27712;BME280;2377;51.734;8.950;2023-07-08T06:20:32;98194.31;;;22.46;46.71
27712;BME280;2377;51.734;8.950;2023-07-08T06:22:59;98187.78;;;22.48;46.47
27712;BME280;2377;51.734;8.950;2023-07-08T06:25:27;98194.53;;;22.49;46.92
27712;BME280;2377;51.734;8.950;2023-07-08T06:27:56;98189.06;;;22.51;46.78
27712;BME280;2377;51.734;8.950;2023-07-08T06:30:23;98186.91;;;22.53;46.95
27712;BME280;2377;51.734;8.950;2023-07-08T06:32:50;98184.53;;;22.56;47.10
27712;BME280;2377;51.734;8.950;2023-07-08T06:35:17;98187.06;;;22.62;47.16
27712;BME280;2377;51.734;8.950;2023-07-08T06:37:44;98191.66;;;22.70;47.38
27712;BME280;2377;51.734;8.950;2023-07-08T06:40:12;98194.13;;;22.80;47.00
27712;BME280;2377;51.734;8.950;2023-07-08T06:42:39;98195.03;;;22.89;47.12
27712;BME280;2377;51.734;8.950;2023-07-08T06:45:09;98200.63;;;23.02;47.33
27712;BME280;2377;51.734;8.950;2023-07-08T06:47:37;98199.41;;;23.13;47.59
27712;BME280;2377;51.734;8.950;2023-07-08T06:50:06;98196.63;;;23.23;47.26
27712;BME280;2377;51.734;8.950;2023-07-08T06:52:33;98196.19;;;23.35;47.40
27712;BME280;2377;51.734;8.950;2023-07-08T06:55:06;98204.13;;;23.43;47.22
27712;BME280;2377;51.734;8.950;2023-07-08T06:57:33;98206.09;;;23.52;47.26
27712;BME280;2377;51.734;8.950;2023-07-08T07:00:00;98201.75;;;23.61;47.64
27712;BME280;2377;51.734;8.950;2023-07-08T07:02:29;98204.19;;;23.71;46.93
27712;BME280;2377;51.734;8.950;2023-07-08T07:04:56;98195.69;;;23.79;46.54
27712;BME280;2377;51.734;8.950;2023-07-08T07:07:24;98196.88;;;23.87;46.75
27712;BME280;2377;51.734;8.950;2023-07-08T07:09:51;98200.06;;;23.98;46.60
27712;BME280;2377;51.734;8.950;2023-07-08T07:12:18;98194.56;;;24.13;46.68
27712;BME280;2377;51.734;8.950;2023-07-08T07:14:45;98201.69;;;24.35;46.91
27712;BME280;2377;51.734;8.950;2023-07-08T07:17:12;98205.44;;;24.57;46.90
27712;BME280;2377;51.734;8.950;2023-07-08T07:19:40;98206.69;;;24.73;46.30
27712;BME280;2377;51.734;8.950;2023-07-08T07:22:08;98214.00;;;24.85;45.90
27712;BME280;2377;51.734;8.950;2023-07-08T07:24:35;98213.19;;;24.98;45.90
27712;BME280;2377;51.734;8.950;2023-07-08T07:27:02;98208.97;;;25.11;45.73
27712;BME280;2377;51.734;8.950;2023-07-08T07:29:41;98218.75;;;25.19;46.12
27712;BME280;2377;51.734;8.950;2023-07-08T07:32:09;98226.22;;;25.35;46.33
27712;BME280;2377;51.734;8.950;2023-07-08T07:34:37;98222.81;;;25.57;45.83
27712;BME280;2377;51.734;8.950;2023-07-08T07:37:10;98224.13;;;25.77;45.98
27712;BME280;2377;51.734;8.950;2023-07-08T07:39:38;98229.94;;;25.96;45.05
27712;BME280;2377;51.734;8.950;2023-07-08T07:42:07;98220.28;;;26.14;45.07
27712;BME280;2377;51.734;8.950;2023-07-08T07:44:34;98220.78;;;26.33;44.11
27712;BME280;2377;51.734;8.950;2023-07-08T07:47:02;98224.84;;;26.48;43.27
27712;BME280;2377;51.734;8.950;2023-07-08T07:49:29;98219.03;;;26.60;43.66
27712;BME280;2377;51.734;8.950;2023-07-08T07:51:57;98224.28;;;26.77;43.73
27712;BME280;2377;51.734;8.950;2023-07-08T07:54:25;98224.59;;;26.93;43.33
27712;BME280;2377;51.734;8.950;2023-07-08T07:56:53;98222.88;;;27.06;42.94
27712;BME280;2377;51.734;8.950;2023-07-08T07:59:21;98228.16;;;27.24;43.72
27712;BME280;2377;51.734;8.950;2023-07-08T08:01:48;98228.09;;;27.41;43.02
27712;BME280;2377;51.734;8.950;2023-07-08T08:04:15;98225.28;;;27.55;42.72
27712;BME280;2377;51.734;8.950;2023-07-08T08:06:42;98228.31;;;27.66;42.20
27712;BME280;2377;51.734;8.950;2023-07-08T08:09:09;98232.50;;;27.75;41.98
27712;BME280;2377;51.734;8.950;2023-07-08T08:11:37;98239.41;;;27.89;42.02
27712;BME280;2377;51.734;8.950;2023-07-08T08:14:05;98236.44;;;27.99;41.46
27712;BME280;2377;51.734;8.950;2023-07-08T08:16:32;98238.72;;;28.09;41.76
27712;BME280;2377;51.734;8.950;2023-07-08T08:18:59;98232.91;;;28.24;42.25
27712;BME280;2377;51.734;8.950;2023-07-08T08:21:26;98234.84;;;28.36;41.32
27712;BME280;2377;51.734;8.950;2023-07-08T08:23:53;98245.66;;;28.43;41.10
27712;BME280;2377;51.734;8.950;2023-07-08T08:26:20;98242.22;;;28.52;41.74
27712;BME280;2377;51.734;8.950;2023-07-08T08:28:48;98237.19;;;28.59;41.94
27712;BME280;2377;51.734;8.950;2023-07-08T08:31:15;98237.34;;;28.62;41.75
27712;BME280;2377;51.734;8.950;2023-07-08T08:33:43;98230.94;;;28.72;41.74
27712;BME280;2377;51.734;8.950;2023-07-08T08:36:10;98241.97;;;28.86;42.56
27712;BME280;2377;51.734;8.950;2023-07-08T08:38:37;98252.22;;;29.00;40.67
27712;BME280;2377;51.734;8.950;2023-07-08T08:41:12;98251.97;;;29.14;41.99
27712;BME280;2377;51.734;8.950;2023-07-08T08:43:41;98251.44;;;29.21;40.01
27712;BME280;2377;51.734;8.950;2023-07-08T08:46:21;98253.88;;;29.26;40.12
27712;BME280;2377;51.734;8.950;2023-07-08T08:48:56;98259.38;;;29.33;40.00
27712;BME280;2377;51.734;8.950;2023-07-08T08:51:27;98257.44;;;29.42;38.94
27712;BME280;2377;51.734;8.950;2023-07-08T08:53:57;98256.47;;;29.59;38.98
27712;BME280;2377;51.734;8.950;2023-07-08T08:56:28;98259.16;;;29.71;39.01
27712;BME280;2377;51.734;8.950;2023-07-08T08:59:05;98257.97;;;29.81;39.35
27712;BME280;2377;51.734;8.950;2023-07-08T09:01:36;98258.94;;;29.89;39.28
27712;BME280;2377;51.734;8.950;2023-07-08T09:04:11;98267.53;;;29.98;40.45
27712;BME280;2377;51.734;8.950;2023-07-08T09:06:41;98264.03;;;30.06;37.57
27712;BME280;2377;51.734;8.950;2023-07-08T09:09:15;98257.31;;;30.09;37.27
27712;BME280;2377;51.734;8.950;2023-07-08T09:11:52;98265.31;;;30.12;37.76
27712;BME280;2377;51.734;8.950;2023-07-08T09:14:27;98264.56;;;30.24;38.12
27712;BME280;2377;51.734;8.950;2023-07-08T09:17:14;98262.72;;;30.37;39.38
27712;BME280;2377;51.734;8.950;2023-07-08T09:19:49;98255.97;;;30.52;38.61
27712;BME280;2377;51.734;8.950;2023-07-08T09:22:28;98259.38;;;30.65;38.46
27712;BME280;2377;51.734;8.950;2023-07-08T09:25:03;98256.81;;;30.68;36.83
27712;BME280;2377;51.734;8.950;2023-07-08T09:27:31;98260.78;;;30.74;37.41
27712;BME280;2377;51.734;8.950;2023-07-08T09:29:58;98255.13;;;30.76;36.03
27712;BME280;2377;51.734;8.950;2023-07-08T09:32:28;98255.69;;;30.82;35.75
27712;BME280;2377;51.734;8.950;2023-07-08T09:35:02;98253.72;;;30.91;36.56
27712;BME280;2377;51.734;8.950;2023-07-08T09:37:33;98248.63;;;30.98;35.07
27712;BME280;2377;51.734;8.950;2023-07-08T09:40:14;98254.22;;;30.96;36.12
27712;BME280;2377;51.734;8.950;2023-07-08T09:42:44;98256.88;;;30.96;35.19
27712;BME280;2377;51.734;8.950;2023-07-08T09:45:15;98247.25;;;31.04;35.34
27712;BME280;2377;51.734;8.950;2023-07-08T09:47:44;98257.06;;;31.04;35.10
27712;BME280;2377;51.734;8.950;2023-07-08T09:50:21;98259.88;;;31.11;35.08
27712;BME280;2377;51.734;8.950;2023-07-08T09:52:52;98254.03;;;31.17;35.70
27712;BME280;2377;51.734;8.950;2023-07-08T09:55:20;98256.16;;;31.28;36.19
27712;BME280;2377;51.734;8.950;2023-07-08T09:57:50;98262.06;;;31.37;36.63
27712;BME280;2377;51.734;8.950;2023-07-08T10:00:27;98260.50;;;31.48;37.28
27712;BME280;2377;51.734;8.950;2023-07-08T10:02:58;98262.38;;;31.48;33.29
27712;BME280;2377;51.734;8.950;2023-07-08T10:05:38;98267.41;;;31.53;34.39
27712;BME280;2377;51.734;8.950;2023-07-08T10:08:15;98263.91;;;31.49;34.04
27712;BME280;2377;51.734;8.950;2023-07-08T10:10:45;98263.00;;;31.57;34.96
27712;BME280;2377;51.734;8.950;2023-07-08T10:13:21;98261.28;;;31.65;36.50
27712;BME280;2377;51.734;8.950;2023-07-08T10:15:55;98263.59;;;31.66;34.75
27712;BME280;2377;51.734;8.950;2023-07-08T10:18:29;98265.19;;;31.55;33.52
27712;BME280;2377;51.734;8.950;2023-07-08T10:21:13;98257.97;;;31.52;34.01
27712;BME280;2377;51.734;8.950;2023-07-08T10:23:51;98255.50;;;31.59;34.87
27712;BME280;2377;51.734;8.950;2023-07-08T10:26:27;98261.13;;;31.73;35.85
27712;BME280;2377;51.734;8.950;2023-07-08T10:29:12;98258.63;;;31.80;34.52
27712;BME280;2377;51.734;8.950;2023-07-08T10:31:51;98258.03;;;31.87;34.46
27712;BME280;2377;51.734;8.950;2023-07-08T10:34:38;98264.53;;;31.90;33.79
27712;BME280;2377;51.734;8.950;2023-07-08T10:37:22;98267.00;;;31.98;34.14
27712;BME280;2377;51.734;8.950;2023-07-08T10:40:06;98268.81;;;32.10;34.12
27712;BME280;2377;51.734;8.950;2023-07-08T10:42:56;98266.72;;;32.19;34.85
27712;BME280;2377;51.734;8.950;2023-07-08T10:45:34;98261.38;;;32.16;32.86
27712;BME280;2377;51.734;8.950;2023-07-08T10:48:33;98263.69;;;32.17;33.92
27712;BME280;2377;51.734;8.950;2023-07-08T10:51:18;98261.53;;;32.23;33.09
27712;BME280;2377;51.734;8.950;2023-07-08T10:54:08;98258.19;;;32.26;34.59
27712;BME280;2377;51.734;8.950;2023-07-08T10:56:49;98255.34;;;32.35;34.42
27712;BME280;2377;51.734;8.950;2023-07-08T10:59:39;98249.03;;;32.39;33.81
27712;BME280;2377;51.734;8.950;2023-07-08T11:02:45;98250.63;;;32.44;32.56
27712;BME280;2377;51.734;8.950;2023-07-08T11:05:28;98260.78;;;32.42;32.17
27712;BME280;2377;51.734;8.950;2023-07-08T11:08:07;98263.34;;;32.38;30.92
27712;BME280;2377;51.734;8.950;2023-07-08T11:10:47;98250.25;;;32.26;31.09
27712;BME280;2377;51.734;8.950;2023-07-08T11:13:21;98248.72;;;32.25;30.43
27712;BME280;2377;51.734;8.950;2023-07-08T11:15:57;98245.47;;;32.32;32.22
27712;BME280;2377;51.734;8.950;2023-07-08T11:18:44;98249.91;;;32.28;31.09
27712;BME280;2377;51.734;8.950;2023-07-08T11:21:20;98247.94;;;32.25;31.76
27712;BME280;2377;51.734;8.950;2023-07-08T11:23:58;98240.25;;;32.19;31.53
27712;BME280;2377;51.734;8.950;2023-07-08T11:26:33;98241.66;;;32.13;32.45
27712;BME280;2377;51.734;8.950;2023-07-08T11:29:17;98236.38;;;32.13;31.42
27712;BME280;2377;51.734;8.950;2023-07-08T11:31:47;98241.13;;;32.23;32.84
27712;BME280;2377;51.734;8.950;2023-07-08T11:34:18;98246.13;;;32.29;32.13
27712;BME280;2377;51.734;8.950;2023-07-08T11:36:49;98229.38;;;32.40;33.32
27712;BME280;2377;51.734;8.950;2023-07-08T11:39:41;98236.63;;;32.43;31.97
27712;BME280;2377;51.734;8.950;2023-07-08T11:42:19;98236.25;;;32.45;31.30
27712;BME280;2377;51.734;8.950;2023-07-08T11:44:51;98239.28;;;32.43;29.74
27712;BME280;2377;51.734;8.950;2023-07-08T11:47:25;98234.81;;;32.48;30.60
27712;BME280;2377;51.734;8.950;2023-07-08T11:49:55;98228.16;;;32.54;29.53
27712;BME280;2377;51.734;8.950;2023-07-08T11:52:23;98221.19;;;32.65;29.16
27712;BME280;2377;51.734;8.950;2023-07-08T11:55:03;98215.19;;;32.49;28.70
27712;BME280;2377;51.734;8.950;2023-07-08T11:57:42;98221.34;;;32.53;30.73
27712;BME280;2377;51.734;8.950;2023-07-08T12:00:19;98217.66;;;32.57;29.27
27712;BME280;2377;51.734;8.950;2023-07-08T12:02:54;98205.69;;;32.48;29.38
27712;BME280;2377;51.734;8.950;2023-07-08T12:05:37;98200.16;;;32.53;30.96
27712;BME280;2377;51.734;8.950;2023-07-08T12:08:13;98212.06;;;32.62;31.69
27712;BME280;2377;51.734;8.950;2023-07-08T12:10:48;98214.09;;;32.69;29.99
27712;BME280;2377;51.734;8.950;2023-07-08T12:13:21;98213.06;;;32.74;31.63
27712;BME280;2377;51.734;8.950;2023-07-08T12:15:49;98206.75;;;32.82;30.76
27712;BME280;2377;51.734;8.950;2023-07-08T12:18:21;98203.81;;;32.87;31.13
27712;BME280;2377;51.734;8.950;2023-07-08T12:20:56;98201.94;;;32.88;31.76
27712;BME280;2377;51.734;8.950;2023-07-08T12:23:26;98204.66;;;32.91;28.17
27712;BME280;2377;51.734;8.950;2023-07-08T12:25:57;98191.06;;;32.93;28.39
27712;BME280;2377;51.734;8.950;2023-07-08T12:28:25;98198.81;;;32.82;26.46
27712;BME280;2377;51.734;8.950;2023-07-08T12:30:52;98196.59;;;32.84;28.01
27712;BME280;2377;51.734;8.950;2023-07-08T12:33:28;98192.25;;;32.95;29.78
27712;BME280;2377;51.734;8.950;2023-07-08T12:35:56;98185.81;;;32.96;29.23
27712;BME280;2377;51.734;8.950;2023-07-08T12:38:30;98177.41;;;32.91;28.29
27712;BME280;2377;51.734;8.950;2023-07-08T12:41:03;98191.19;;;33.00;29.77
27712;BME280;2377;51.734;8.950;2023-07-08T12:43:35;98191.34;;;33.07;31.00
27712;BME280;2377;51.734;8.950;2023-07-08T12:46:03;98201.38;;;33.17;29.11
27712;BME280;2377;51.734;8.950;2023-07-08T12:48:33;98193.13;;;33.22;27.82
27712;BME280;2377;51.734;8.950;2023-07-08T12:51:00;98193.19;;;33.26;29.20
27712;BME280;2377;51.734;8.950;2023-07-08T12:53:27;98192.13;;;33.31;31.27
27712;BME280;2377;51.734;8.950;2023-07-08T12:55:59;98186.41;;;33.29;29.26
27712;BME280;2377;51.734;8.950;2023-07-08T12:58:30;98187.06;;;33.22;27.14
27712;BME280;2377;51.734;8.950;2023-07-08T13:01:02;98193.13;;;33.22;29.50
27712;BME280;2377;51.734;8.950;2023-07-08T13:03:34;98186.28;;;33.21;28.63
27712;BME280;2377;51.734;8.950;2023-07-08T13:06:03;98184.09;;;33.27;29.25
27712;BME280;2377;51.734;8.950;2023-07-08T13:08:35;98185.75;;;33.35;29.23
27712;BME280;2377;51.734;8.950;2023-07-08T13:11:06;98194.19;;;33.41;30.03
27712;BME280;2377;51.734;8.950;2023-07-08T13:13:38;98188.84;;;33.37;27.37
27712;BME280;2377;51.734;8.950;2023-07-08T13:16:09;98182.50;;;33.22;26.18
27712;BME280;2377;51.734;8.950;2023-07-08T13:18:40;98187.88;;;33.26;27.86
27712;BME280;2377;51.734;8.950;2023-07-08T13:21:13;98192.53;;;33.33;28.98
27712;BME280;2377;51.734;8.950;2023-07-08T13:23:41;98195.66;;;33.38;29.73
27712;BME280;2377;51.734;8.950;2023-07-08T13:26:15;98196.53;;;33.46;27.34
27712;BME280;2377;51.734;8.950;2023-07-08T13:28:44;98188.94;;;33.44;28.49